Time;durP1;ratioP1;P1;durP2;ratioP2;P2;SDS_P1;SDS_P2;PMS_P1;PMS_P2;Temp;Humidity;BMP_temperature;BMP_pressure;BME280_temperature;BME280_humidity;BME280_pressure;Samples;Min_cycle;Max_cycle;Signal;HPM_P1;HPM_P2
2021/08/12 00:02:08;;;;;;;12.47;9.90;;;;;;;14.80;77.03;100653.84;1780637;80;21055;-90
2021/08/12 00:04:34;;;;;;;11.45;8.68;;;;;;;14.78;76.94;100650.84;1779919;80;21047;-90
2021/08/12 00:07:02;;;;;;;11.88;8.53;;;;;;;14.79;76.98;100650.34;1780706;80;20999;-90
2021/08/12 00:09:28;;;;;;;9.68;8.20;;;;;;;14.77;77.23;100659.80;1780850;80;21470;-91
2021/08/12 00:11:54;;;;;;;8.88;7.40;;;;;;;14.75;77.19;100653.75;1780638;80;21003;-90
2021/08/12 00:14:20;;;;;;;8.30;7.33;;;;;;;14.74;77.41;100660.05;1780835;80;20987;-90
2021/08/12 00:16:46;;;;;;;10.30;7.03;;;;;;;14.71;77.56;100665.62;1780529;80;21076;-90
2021/08/12 00:19:12;;;;;;;8.75;6.70;;;;;;;14.68;77.90;100658.40;1780925;80;21541;-90
2021/08/12 00:21:42;;;;;;;9.88;6.78;;;;;;;14.65;77.72;100671.45;1780581;80;21473;-90
2021/08/12 00:24:08;;;;;;;11.20;6.35;;;;;;;14.63;78.06;100672.05;1780887;80;21540;-90
2021/08/12 00:26:35;;;;;;;8.75;5.60;;;;;;;14.61;77.92;100666.05;1780786;80;20952;-90
2021/08/12 00:29:04;;;;;;;9.90;6.85;;;;;;;14.60;77.82;100666.16;1780852;80;21066;-91
2021/08/12 00:31:31;;;;;;;8.00;5.53;;;;;;;14.57;77.76;100664.59;1780373;80;21019;-90
2021/08/12 00:33:57;;;;;;;6.53;5.37;;;;;;;14.56;78.08;100670.05;1780747;80;21022;-90
2021/08/12 00:36:23;;;;;;;7.78;5.97;;;;;;;14.51;78.04;100671.28;1780972;80;21460;-90
2021/08/12 00:38:50;;;;;;;8.35;5.78;;;;;;;14.47;77.97;100673.78;1780736;80;21003;-91
2021/08/12 00:41:16;;;;;;;7.05;5.20;;;;;;;14.45;77.95;100672.25;1780881;80;20971;-91
2021/08/12 00:43:42;;;;;;;8.05;6.28;;;;;;;14.42;78.10;100677.81;1780507;80;21600;-90
2021/08/12 00:46:08;;;;;;;8.58;5.35;;;;;;;14.40;78.49;100677.08;1780767;80;21038;-90
2021/08/12 00:48:34;;;;;;;9.40;5.75;;;;;;;14.37;78.41;100682.16;1780578;80;20984;-90
2021/08/12 00:51:00;;;;;;;7.70;6.03;;;;;;;14.33;78.67;100678.56;1780863;80;20983;-90
2021/08/12 00:53:26;;;;;;;8.33;6.15;;;;;;;14.30;78.64;100684.47;1780736;80;20979;-90
2021/08/12 00:55:52;;;;;;;8.13;5.78;;;;;;;14.29;78.43;100680.63;1780766;80;20987;-90
2021/08/12 00:58:19;;;;;;;9.63;6.10;;;;;;;14.26;78.50;100677.74;1780722;80;21425;-90
2021/08/12 01:00:51;;;;;;;7.00;6.00;;;;;;;14.23;78.60;100682.46;1780780;80;21034;-90
2021/08/12 01:03:18;;;;;;;7.50;5.80;;;;;;;14.19;78.60;100682.36;1780562;80;21054;-90
2021/08/12 01:05:57;;;;;;;10.45;5.42;;;;;;;14.15;78.73;100680.45;1780822;80;21521;-90
2021/08/12 01:08:33;;;;;;;6.62;5.78;;;;;;;14.11;78.83;100688.77;1780665;80;21003;-90
2021/08/12 01:11:19;;;;;;;7.55;5.78;;;;;;;14.07;78.86;100689.50;1764461;80;21051;-90
2021/08/12 01:14:28;;;;;;;7.47;6.22;;;;;;;14.03;78.66;100692.89;1718809;80;21482;-90
2021/08/12 01:17:17;;;;;;;10.03;6.17;;;;;;;14.01;78.91;100683.37;1780768;80;21013;-90
2021/08/12 01:20:08;;;;;;;7.22;5.67;;;;;;;13.97;79.10;100692.06;1779385;80;20991;-89
2021/08/12 01:22:48;;;;;;;8.65;6.53;;;;;;;13.93;79.30;100692.45;1780686;80;21003;-89
2021/08/12 01:25:22;;;;;;;10.25;6.87;;;;;;;13.90;79.14;100702.81;1780827;80;21054;-89
2021/08/12 01:27:52;;;;;;;9.13;6.20;;;;;;;13.87;79.09;100703.05;1779097;80;21494;-89
2021/08/12 01:30:23;;;;;;;10.32;7.50;;;;;;;13.84;79.08;100701.48;1780898;80;21007;-89
2021/08/12 01:33:16;;;;;;;10.20;6.12;;;;;;;13.83;79.37;100695.83;1758854;80;21493;-89
2021/08/12 01:35:43;;;;;;;10.80;6.00;;;;;;;13.81;79.41;100692.45;1780879;80;21501;-89
2021/08/12 01:38:20;;;;;;;11.18;5.62;;;;;;;13.75;79.30;100695.59;1780493;80;21058;-89
2021/08/12 01:40:48;;;;;;;12.73;6.60;;;;;;;13.72;79.50;100695.86;1780754;80;21026;-90
2021/08/12 01:43:17;;;;;;;10.30;6.83;;;;;;;13.70;79.60;100698.27;1780644;80;21042;-88
2021/08/12 01:45:53;;;;;;;10.03;6.53;;;;;;;13.64;79.92;100689.47;1780628;80;21069;-89
2021/08/12 01:48:24;;;;;;;8.55;6.85;;;;;;;13.59;80.13;100695.16;1780500;80;21078;-89
2021/08/12 01:50:52;;;;;;;8.43;5.65;;;;;;;13.54;80.13;100695.50;1780678;80;21089;-89
2021/08/12 01:53:21;;;;;;;9.58;6.62;;;;;;;13.50;80.06;100695.88;1780529;80;20991;-89
2021/08/12 01:55:49;;;;;;;10.48;7.42;;;;;;;13.46;80.08;100699.25;1780927;80;20948;-89
2021/08/12 01:58:18;;;;;;;11.20;7.45;;;;;;;13.45;80.41;100700.19;1780747;80;21019;-89
2021/08/12 02:00:48;;;;;;;12.50;7.42;;;;;;;13.42;80.51;100705.73;1780996;80;21039;-89
2021/08/12 02:03:16;;;;;;;8.73;5.67;;;;;;;13.38;80.38;100706.95;1780857;80;21062;-89
2021/08/12 02:05:47;;;;;;;9.40;6.40;;;;;;;13.36;80.50;100702.27;1780872;80;21321;-89
2021/08/12 02:08:15;;;;;;;8.68;6.53;;;;;;;13.36;80.41;100704.92;1780885;80;21054;-89
2021/08/12 02:10:44;;;;;;;7.50;5.60;;;;;;;13.32;80.68;100704.77;1759278;80;21054;-89
2021/08/12 02:13:10;;;;;;;8.53;6.60;;;;;;;13.27;80.72;100710.44;1780522;80;21106;-89
2021/08/12 02:15:37;;;;;;;8.33;5.58;;;;;;;13.27;80.60;100710.44;1780876;80;21015;-89
2021/08/12 02:18:05;;;;;;;9.65;6.75;;;;;;;13.26;80.59;100706.12;1780817;80;21046;-89
2021/08/12 02:20:32;;;;;;;8.98;5.60;;;;;;;13.22;80.81;100702.45;1780810;80;21055;-89
2021/08/12 02:23:04;;;;;;;8.40;6.28;;;;;;;13.19;80.82;100705.33;1780830;80;21039;-89
2021/08/12 02:25:40;;;;;;;9.48;5.90;;;;;;;13.16;80.91;100707.73;1780279;80;21039;-89
2021/08/12 02:28:10;;;;;;;9.38;6.42;;;;;;;13.09;81.08;100702.06;1780548;80;21441;-89
2021/08/12 02:30:40;;;;;;;6.85;5.78;;;;;;;13.07;81.07;100701.36;1780586;80;21079;-89
2021/08/12 02:33:11;;;;;;;9.65;6.10;;;;;;;13.06;80.98;100708.08;1780791;80;20999;-89
2021/08/12 02:35:38;;;;;;;10.08;6.45;;;;;;;13.04;81.32;100707.38;1780912;80;20998;-89
2021/08/12 02:38:08;;;;;;;6.70;5.60;;;;;;;13.03;81.03;100703.89;1780760;80;20991;-89
2021/08/12 02:40:36;;;;;;;9.38;6.28;;;;;;;13.01;81.15;100694.36;1759262;80;21496;-89
2021/08/12 02:43:04;;;;;;;10.13;5.83;;;;;;;12.97;81.19;100694.24;1780741;80;20975;-89
2021/08/12 02:45:32;;;;;;;11.08;6.28;;;;;;;12.94;81.30;100702.42;1780999;80;21517;-89
2021/08/12 02:48:00;;;;;;;9.63;6.47;;;;;;;12.91;81.59;100708.80;1780842;80;20979;-89
2021/08/12 02:50:26;;;;;;;9.00;5.78;;;;;;;12.90;81.13;100709.77;1780875;80;21007;-89
2021/08/12 02:52:53;;;;;;;14.47;6.65;;;;;;;12.88;81.29;100705.05;1780787;80;21066;-89
2021/08/12 02:55:19;;;;;;;8.13;5.45;;;;;;;12.85;81.60;100702.15;1780951;80;20999;-89
2021/08/12 02:57:46;;;;;;;9.58;6.80;;;;;;;12.82;81.72;100705.52;1780883;80;20975;-89
2021/08/12 03:00:13;;;;;;;11.18;6.80;;;;;;;12.78;81.80;100701.41;1780925;80;20999;-89
2021/08/12 03:02:44;;;;;;;8.15;6.17;;;;;;;12.74;81.86;100702.62;1780880;80;20956;-89
2021/08/12 03:05:13;;;;;;;9.78;6.33;;;;;;;12.72;81.75;100705.84;1780616;80;21553;-89
2021/08/12 03:07:39;;;;;;;7.72;6.00;;;;;;;12.72;81.48;100707.17;1780228;80;21030;-89
2021/08/12 03:10:06;;;;;;;6.33;5.42;;;;;;;12.71;81.65;100707.66;1781044;80;21022;-89
2021/08/12 03:12:33;;;;;;;11.83;6.92;;;;;;;12.67;81.67;100703.08;1780765;80;20967;-89
2021/08/12 03:15:00;;;;;;;10.90;6.90;;;;;;;12.65;81.90;100707.63;1780934;80;21470;-89
2021/08/12 03:17:26;;;;;;;8.53;6.45;;;;;;;12.64;82.01;100709.08;1780884;80;21046;-89
2021/08/12 03:19:52;;;;;;;8.68;6.83;;;;;;;12.63;81.87;100714.83;1780955;80;21074;-89
2021/08/12 03:22:18;;;;;;;10.48;6.75;;;;;;;12.62;82.36;100708.34;1780741;80;21810;-89
2021/08/12 03:24:47;;;;;;;10.28;5.78;;;;;;;12.59;82.56;100707.25;1781077;80;20975;-89
2021/08/12 03:27:16;;;;;;;7.60;5.87;;;;;;;12.57;82.61;100703.41;1780686;80;21023;-89
2021/08/12 03:29:44;;;;;;;11.45;7.17;;;;;;;12.55;82.55;100710.61;1780944;80;20996;-89
2021/08/12 03:32:11;;;;;;;9.05;7.20;;;;;;;12.53;82.66;100715.16;1780782;80;20991;-89
2021/08/12 03:34:37;;;;;;;9.00;6.17;;;;;;;12.51;82.42;100709.16;1781089;80;21033;-89
2021/08/12 03:37:05;;;;;;;27.70;8.35;;;;;;;12.51;82.53;100714.94;1780585;80;21470;-89
2021/08/12 03:39:32;;;;;;;9.28;6.47;;;;;;;12.50;82.48;100710.09;1780881;80;21042;-89
2021/08/12 03:41:59;;;;;;;9.48;6.25;;;;;;;12.49;82.34;100717.67;1780773;80;21011;-89
2021/08/12 03:44:25;;;;;;;9.83;7.25;;;;;;;12.49;82.30;100711.55;1781006;80;21552;-89
2021/08/12 03:46:52;;;;;;;10.60;7.55;;;;;;;12.49;82.61;100713.70;1780676;80;21026;-89
2021/08/12 03:49:18;;;;;;;9.40;6.58;;;;;;;12.48;82.51;100712.51;1781072;80;20999;-89
2021/08/12 03:51:44;;;;;;;8.95;7.53;;;;;;;12.46;82.67;100712.61;1780679;80;21513;-89
2021/08/12 03:54:10;;;;;;;9.58;6.60;;;;;;;12.44;82.87;100718.52;1781043;80;20991;-88
2021/08/12 03:56:37;;;;;;;9.53;6.95;;;;;;;12.42;82.85;100719.09;1780808;80;20995;-88
2021/08/12 03:59:04;;;;;;;9.15;6.62;;;;;;;12.41;82.97;100718.73;1780845;80;21458;-89
2021/08/12 04:01:31;;;;;;;15.18;6.87;;;;;;;12.38;82.95;100718.48;1780546;80;21465;-89
2021/08/12 04:03:57;;;;;;;12.30;6.92;;;;;;;12.37;83.12;100718.58;1780757;80;20999;-89
2021/08/12 04:06:23;;;;;;;10.98;6.17;;;;;;;12.36;83.20;100718.22;1780938;80;20991;-88
2021/08/12 04:08:49;;;;;;;10.78;6.42;;;;;;;12.34;83.26;100717.02;1780692;80;21049;-89
2021/08/12 04:11:15;;;;;;;11.70;7.53;;;;;;;12.35;83.12;100719.19;1780950;80;20963;-89
2021/08/12 04:13:41;;;;;;;15.72;6.58;;;;;;;12.35;83.63;100725.80;1780777;80;21042;-89
2021/08/12 04:16:07;;;;;;;10.75;7.05;;;;;;;12.34;83.80;100728.06;1780897;80;21078;-89
2021/08/12 04:18:34;;;;;;;16.95;8.83;;;;;;;12.34;84.04;100725.41;1780802;80;21437;-89
2021/08/12 04:21:00;;;;;;;13.45;7.92;;;;;;;12.36;84.11;100730.12;1780938;80;21055;-89
2021/08/12 04:23:26;;;;;;;13.62;8.08;;;;;;;12.36;84.40;100727.00;1780788;80;21027;-89
2021/08/12 04:25:53;;;;;;;12.55;6.58;;;;;;;12.37;84.32;100723.87;1780976;80;21051;-88
2021/08/12 04:28:19;;;;;;;11.73;6.95;;;;;;;12.37;84.51;100722.55;1780763;80;21585;-88
2021/08/12 04:30:45;;;;;;;10.35;7.80;;;;;;;12.38;84.76;100721.13;1780978;80;20983;-89
2021/08/12 04:33:11;;;;;;;10.48;7.53;;;;;;;12.40;84.92;100728.48;1780790;80;20980;-89
2021/08/12 04:35:37;;;;;;;11.55;7.37;;;;;;;12.42;85.15;100731.00;1780889;80;20979;-89
2021/08/12 04:38:03;;;;;;;18.67;8.25;;;;;;;12.43;85.25;100724.26;1780874;80;21508;-89
2021/08/12 04:40:28;;;;;;;13.08;6.58;;;;;;;12.47;85.50;100730.66;1780862;80;21038;-89
2021/08/12 04:42:55;;;;;;;15.00;7.05;;;;;;;12.49;85.47;100726.10;1780839;80;20968;-89
2021/08/12 04:45:22;;;;;;;11.90;7.65;;;;;;;12.52;85.20;100734.66;1780826;80;21055;-89
2021/08/12 04:47:49;;;;;;;14.47;8.15;;;;;;;12.56;85.66;100734.78;1780407;80;21034;-88
2021/08/12 04:50:15;;;;;;;10.15;7.05;;;;;;;12.58;85.55;100734.20;1780926;80;20976;-89
2021/08/12 04:52:41;;;;;;;11.80;7.85;;;;;;;12.62;85.82;100732.17;1780845;80;21031;-89
2021/08/12 04:55:10;;;;;;;12.33;7.67;;;;;;;12.66;85.86;100735.78;1780986;80;20986;-89
2021/08/12 04:57:36;;;;;;;13.13;7.90;;;;;;;12.70;85.71;100730.27;1780671;80;20994;-89
2021/08/12 05:00:04;;;;;;;12.07;7.95;;;;;;;12.75;85.86;100734.75;1780820;80;21051;-88
2021/08/12 05:02:30;;;;;;;12.03;7.45;;;;;;;12.79;85.87;100733.55;1780672;80;20995;-88
2021/08/12 05:04:56;;;;;;;12.43;8.38;;;;;;;12.83;86.14;100735.00;1780963;80;20975;-89
2021/08/12 05:07:22;;;;;;;15.35;9.90;;;;;;;12.87;86.47;100732.51;1780745;80;21521;-88
2021/08/12 05:09:48;;;;;;;11.78;8.65;;;;;;;12.91;86.53;100727.33;1780892;80;21493;-88
2021/08/12 05:12:20;;;;;;;12.45;9.60;;;;;;;12.95;86.53;100730.59;1780750;80;21050;-89
2021/08/12 05:14:48;;;;;;;19.20;9.33;;;;;;;12.99;86.59;100728.91;1781048;80;21026;-88
2021/08/12 05:17:14;;;;;;;12.25;9.28;;;;;;;13.05;86.56;100734.22;1780790;80;21477;-88
2021/08/12 05:19:40;;;;;;;14.95;8.45;;;;;;;13.09;86.71;100738.31;1780884;80;21019;-89
2021/08/12 05:22:07;;;;;;;12.82;8.95;;;;;;;13.12;86.80;100743.38;1780788;80;21110;-89
2021/08/12 05:24:33;;;;;;;15.35;9.50;;;;;;;13.16;86.85;100748.80;1780942;80;20980;-89
2021/08/12 05:26:59;;;;;;;15.83;11.30;;;;;;;13.20;86.97;100750.77;1780708;80;21086;-89
2021/08/12 05:29:25;;;;;;;12.53;10.32;;;;;;;13.25;87.41;100744.64;1781048;80;20999;-89
2021/08/12 05:31:52;;;;;;;17.70;11.20;;;;;;;13.30;87.60;100753.94;1780673;80;21861;-89
2021/08/12 05:34:17;;;;;;;16.30;12.10;;;;;;;13.36;87.85;100756.60;1780939;80;21545;-89
2021/08/12 05:36:43;;;;;;;17.40;11.80;;;;;;;13.44;88.25;100759.48;1780785;80;20995;-89
2021/08/12 05:39:09;;;;;;;15.08;11.50;;;;;;;13.52;88.38;100764.19;1780864;80;20983;-89
2021/08/12 05:41:36;;;;;;;16.12;11.10;;;;;;;13.59;88.40;100766.26;1758067;80;21920;-89
2021/08/12 05:44:02;;;;;;;17.00;11.05;;;;;;;13.68;88.48;100767.33;1759063;80;20991;-89
2021/08/12 05:46:29;;;;;;;15.98;13.05;;;;;;;13.74;88.45;100766.84;1780561;80;21054;-89
2021/08/12 05:48:59;;;;;;;17.87;11.45;;;;;;;13.81;88.21;100770.69;1780853;80;21457;-90
2021/08/12 05:51:27;;;;;;;17.37;10.95;;;;;;;13.90;88.15;100772.27;1757378;80;21533;-89
2021/08/12 05:53:53;;;;;;;13.98;10.53;;;;;;;13.97;88.54;100775.63;1780587;80;21453;-89
2021/08/12 05:56:21;;;;;;;16.07;10.82;;;;;;;14.07;88.12;100773.92;1780868;80;21063;-89
2021/08/12 05:58:49;;;;;;;16.10;11.18;;;;;;;14.14;88.10;100776.09;1780700;80;20979;-89
2021/08/12 06:01:15;;;;;;;17.70;10.75;;;;;;;14.23;87.93;100777.52;1781107;80;21050;-89
2021/08/12 06:03:41;;;;;;;14.58;11.28;;;;;;;14.29;88.00;100774.87;1780610;80;20999;-89
2021/08/12 06:06:09;;;;;;;15.85;11.60;;;;;;;14.37;88.00;100779.55;1780877;80;20983;-89
2021/08/12 06:08:40;;;;;;;18.48;12.23;;;;;;;14.43;88.06;100778.56;1780560;80;21038;-89
2021/08/12 06:11:08;;;;;;;19.87;14.38;;;;;;;14.49;88.22;100780.72;1758758;80;21027;-89
2021/08/12 06:13:34;;;;;;;16.10;12.05;;;;;;;14.56;88.27;100771.80;1780748;80;21489;-89
2021/08/12 06:16:01;;;;;;;16.77;10.50;;;;;;;14.63;87.93;100766.33;1781235;80;21010;-89
2021/08/12 06:18:27;;;;;;;21.10;11.55;;;;;;;14.70;87.93;100768.83;1780465;80;21000;-89
2021/08/12 06:20:56;;;;;;;15.08;10.80;;;;;;;14.80;87.86;100766.25;1781001;80;20995;-89
2021/08/12 06:23:24;;;;;;;17.67;10.43;;;;;;;14.90;87.67;100770.31;1758374;80;21178;-88
2021/08/12 06:25:55;;;;;;;16.27;10.63;;;;;;;15.00;87.40;100769.44;1757125;80;21034;-88
2021/08/12 06:28:23;;;;;;;12.60;9.33;;;;;;;15.11;87.44;100771.67;1757521;80;20959;-88
2021/08/12 06:30:53;;;;;;;13.22;9.43;;;;;;;15.18;87.25;100768.84;1758862;80;21023;-88
2021/08/12 06:33:23;;;;;;;14.35;10.45;;;;;;;15.27;87.00;100774.72;1780759;80;21477;-88
2021/08/12 06:35:49;;;;;;;11.73;9.05;;;;;;;15.38;87.10;100779.11;1757420;80;20999;-88
2021/08/12 06:38:17;;;;;;;11.18;8.73;;;;;;;15.47;86.78;100775.17;1780834;80;21513;-88
2021/08/12 06:40:43;;;;;;;15.18;9.58;;;;;;;15.59;86.35;100775.08;1780764;80;21469;-88
2021/08/12 06:43:09;;;;;;;9.90;7.55;;;;;;;15.68;86.24;100784.96;1780836;80;21023;-88
2021/08/12 06:45:35;;;;;;;12.88;7.37;;;;;;;15.76;85.96;100779.83;1780832;80;21516;-88
2021/08/12 06:48:05;;;;;;;11.30;7.25;;;;;;;15.83;85.76;100775.66;1780612;80;21505;-88
2021/08/12 06:50:34;;;;;;;9.43;7.05;;;;;;;15.92;85.20;100785.95;1780839;80;21007;-88
2021/08/12 06:53:00;;;;;;;9.70;7.70;;;;;;;16.00;85.23;100778.66;1780795;80;21008;-88
2021/08/12 06:55:32;;;;;;;8.53;6.12;;;;;;;16.09;85.30;100789.33;1780864;80;21058;-88
2021/08/12 06:57:58;;;;;;;9.60;6.33;;;;;;;16.17;84.87;100778.83;1780805;80;21027;-88
2021/08/12 07:00:25;;;;;;;11.50;5.90;;;;;;;16.29;84.02;100784.05;1780711;80;21529;-88
2021/08/12 07:02:54;;;;;;;11.88;7.47;;;;;;;16.39;83.91;100780.42;1822467;78;20996;-88
2021/08/12 07:05:20;;;;;;;10.35;6.60;;;;;;;16.49;84.02;100787.09;1823737;78;21611;-88
2021/08/12 07:07:47;;;;;;;8.95;5.87;;;;;;;16.57;83.53;100785.06;1847603;77;21485;-88
2021/08/12 07:10:14;;;;;;;9.45;5.33;;;;;;;16.64;83.81;100787.02;1824102;78;21032;-88
2021/08/12 07:12:40;;;;;;;9.73;6.17;;;;;;;16.73;82.75;100785.35;1847337;78;20977;-90
2021/08/12 07:15:07;;;;;;;10.98;5.78;;;;;;;16.83;82.35;100784.05;1847753;78;20930;-88
2021/08/12 07:17:35;;;;;;;7.95;5.40;;;;;;;16.96;82.39;100786.44;1847378;77;20977;-88
2021/08/12 07:20:02;;;;;;;9.03;4.87;;;;;;;17.07;81.87;100783.11;1847634;77;21024;-88
2021/08/12 07:22:28;;;;;;;10.13;5.45;;;;;;;17.18;81.66;100787.97;1847377;77;21396;-88
2021/08/12 07:24:54;;;;;;;8.90;5.00;;;;;;;17.28;81.29;100784.28;1847792;77;21364;-88
2021/08/12 07:27:20;;;;;;;7.12;5.03;;;;;;;17.41;81.52;100781.81;1847523;77;20941;-89
2021/08/12 07:29:46;;;;;;;7.03;4.75;;;;;;;17.49;80.50;100782.75;1847737;78;20978;-84
2021/08/12 07:32:12;;;;;;;9.93;4.53;;;;;;;17.60;79.92;100788.39;1847407;77;21431;-89
2021/08/12 07:34:38;;;;;;;6.95;3.58;;;;;;;17.72;79.90;100793.91;1847568;78;21475;-89
2021/08/12 07:37:05;;;;;;;6.15;4.60;;;;;;;17.81;79.04;100792.23;1847508;78;20989;-89
2021/08/12 07:39:31;;;;;;;6.70;3.60;;;;;;;17.89;79.27;100799.49;1824520;78;21043;-89
2021/08/12 07:41:57;;;;;;;5.17;4.17;;;;;;;18.00;78.49;100792.64;1847336;78;21630;-89
2021/08/12 07:44:23;;;;;;;5.30;4.15;;;;;;;18.10;78.17;100801.44;1847751;77;21007;-89
2021/08/12 07:46:49;;;;;;;9.58;3.60;;;;;;;18.21;78.77;100803.90;1847269;78;21020;-89
2021/08/12 07:49:15;;;;;;;6.15;4.05;;;;;;;18.33;76.58;100806.35;1847806;78;21431;-89
2021/08/12 07:51:41;;;;;;;7.53;3.80;;;;;;;18.44;76.78;100800.81;1847494;77;21002;-89
2021/08/12 07:54:07;;;;;;;5.67;3.58;;;;;;;18.54;77.19;100798.91;1847742;77;21028;-89
2021/08/12 07:56:33;;;;;;;7.35;4.15;;;;;;;18.62;77.81;100800.31;1847593;78;21431;-88
2021/08/12 07:58:59;;;;;;;5.78;4.00;;;;;;;18.73;76.82;100801.98;1847661;78;20969;-89
2021/08/12 08:01:25;;;;;;;4.95;3.85;;;;;;;18.85;76.36;100797.22;1847583;77;21523;-89
2021/08/12 08:03:53;;;;;;;9.55;3.80;;;;;;;18.96;75.99;100792.99;1847469;78;21448;-89
2021/08/12 08:06:20;;;;;;;7.45;3.33;;;;;;;19.06;75.78;100793.74;1847336;77;20982;-89
2021/08/12 08:08:46;;;;;;;6.20;3.90;;;;;;;19.17;76.11;100793.98;1847243;77;21032;-89
2021/08/12 08:11:14;;;;;;;8.60;3.62;;;;;;;19.24;74.82;100800.89;1847756;77;20959;-88
2021/08/12 08:13:40;;;;;;;7.97;3.60;;;;;;;19.33;74.62;100807.48;1846939;77;20993;-89
2021/08/12 08:16:06;;;;;;;6.22;3.87;;;;;;;19.33;73.41;100776.70;1847452;77;21017;-89
2021/08/12 08:18:35;;;;;;;4.28;3.20;;;;;;;19.57;73.96;100797.92;1847285;78;21019;-87
2021/08/12 08:21:01;;;;;;;7.45;4.08;;;;;;;19.65;73.25;100795.34;1847880;78;21028;-88
2021/08/12 08:23:27;;;;;;;3.95;3.30;;;;;;;19.73;74.05;100803.91;1847287;77;21476;-88
2021/08/12 08:25:53;;;;;;;6.55;3.90;;;;;;;19.83;71.70;100805.46;1847555;78;21029;-89
2021/08/12 08:28:19;;;;;;;7.65;3.52;;;;;;;19.90;72.23;100804.32;1847167;78;21005;-88
2021/08/12 08:30:45;;;;;;;4.22;3.05;;;;;;;19.96;72.61;100808.20;1847385;78;21084;-89
2021/08/12 08:33:12;;;;;;;5.67;3.15;;;;;;;20.03;72.50;100806.05;1847517;77;20957;-89
2021/08/12 08:35:38;;;;;;;7.65;3.47;;;;;;;20.13;71.04;100806.76;1847475;78;21000;-88
2021/08/12 08:38:05;;;;;;;4.55;2.85;;;;;;;20.22;71.45;100814.33;1847338;77;21502;-87
2021/08/12 08:40:34;;;;;;;3.42;2.65;;;;;;;20.29;70.62;100816.70;1847494;77;21048;-87
2021/08/12 08:43:02;;;;;;;5.90;3.25;;;;;;;20.36;70.45;100820.91;1847094;78;21040;-88
2021/08/12 08:45:29;;;;;;;3.40;2.62;;;;;;;20.44;70.72;100816.92;1847213;77;20988;-87
2021/08/12 08:47:58;;;;;;;3.75;2.70;;;;;;;20.55;70.13;100814.45;1847389;77;21048;-87
2021/08/12 08:50:27;;;;;;;4.60;3.22;;;;;;;20.63;70.03;100813.63;1847509;78;21013;-87
2021/08/12 08:52:54;;;;;;;6.10;4.83;;;;;;;20.73;70.00;100812.97;1847177;77;20993;-87
2021/08/12 08:55:23;;;;;;;4.50;3.22;;;;;;;20.83;69.13;100819.05;1847285;78;21444;-88
2021/08/12 08:57:51;;;;;;;5.20;2.70;;;;;;;20.91;68.37;100812.84;1846911;78;21005;-87
2021/08/12 09:00:18;;;;;;;5.05;3.27;;;;;;;20.97;67.10;100808.15;1847289;77;20965;-88
2021/08/12 09:02:46;;;;;;;4.28;3.15;;;;;;;21.01;67.59;100808.98;1847412;77;21028;-87
2021/08/12 09:05:14;;;;;;;4.53;3.20;;;;;;;21.05;66.97;100806.80;1847433;78;21008;-88
2021/08/12 09:07:41;;;;;;;5.28;3.12;;;;;;;21.11;66.29;100805.30;1847851;78;20997;-87
2021/08/12 09:10:08;;;;;;;7.03;3.25;;;;;;;21.19;67.58;100804.80;1847471;77;20997;-87
2021/08/12 09:12:36;;;;;;;4.75;2.77;;;;;;;21.33;66.97;100807.80;1847370;78;21499;-88
2021/08/12 09:15:09;;;;;;;5.00;3.30;;;;;;;21.43;66.51;100798.58;1847198;77;21048;-89
2021/08/12 09:17:36;;;;;;;4.92;2.80;;;;;;;21.54;66.52;100800.89;1847082;78;21012;-89
2021/08/12 09:20:22;;;;;;;4.50;3.00;;;;;;;21.71;66.92;100801.69;1847482;78;21009;-89
2021/08/12 09:22:56;;;;;;;4.12;2.47;;;;;;;21.86;65.64;100797.80;1847285;78;20949;-88
2021/08/12 09:25:45;;;;;;;4.20;2.87;;;;;;;21.96;64.89;100803.80;1847213;77;20994;-88
2021/08/12 09:28:32;;;;;;;4.20;2.40;;;;;;;22.07;64.10;100795.02;1847106;77;21445;-88
2021/08/12 09:31:04;;;;;;;4.50;2.95;;;;;;;22.23;63.10;100796.31;1847457;77;21001;-88
2021/08/12 09:33:37;;;;;;;4.15;3.00;;;;;;;22.34;63.78;100797.28;1847581;78;20969;-88
2021/08/12 09:36:04;;;;;;;4.28;2.45;;;;;;;22.36;63.30;100791.20;1846926;77;21010;-88
2021/08/12 09:38:30;;;;;;;4.08;2.60;;;;;;;22.35;62.74;100794.08;1824154;78;20946;-88
2021/08/12 09:41:00;;;;;;;5.08;2.77;;;;;;;22.33;62.40;100794.75;1847508;78;21463;-87
2021/08/12 09:43:37;;;;;;;3.17;2.58;;;;;;;22.36;62.12;100791.20;1847278;78;21084;-86
2021/08/12 09:46:08;;;;;;;3.37;2.45;;;;;;;22.45;61.67;100784.77;1847407;77;21056;-87
2021/08/12 09:48:34;;;;;;;4.58;2.58;;;;;;;22.61;61.75;100789.72;1847030;78;21039;-88
2021/08/12 09:51:09;;;;;;;4.62;3.15;;;;;;;22.76;61.24;100794.63;1847631;78;21023;-89
2021/08/12 09:53:36;;;;;;;3.52;2.58;;;;;;;22.84;60.40;100799.14;1847381;78;22238;-88
2021/08/12 09:56:11;;;;;;;3.45;2.98;;;;;;;22.86;59.88;100800.60;1847442;78;21036;-88
2021/08/12 09:58:39;;;;;;;3.17;2.45;;;;;;;22.91;61.41;100794.70;1847229;78;20993;-88
2021/08/12 10:01:20;;;;;;;5.28;2.77;;;;;;;22.89;59.82;100791.34;1847493;78;21009;-88
2021/08/12 10:03:49;;;;;;;5.50;3.20;;;;;;;22.77;60.33;100800.84;1847426;78;20997;-89
2021/08/12 10:06:25;;;;;;;4.80;2.35;;;;;;;22.69;60.12;100801.75;1847281;77;21017;-88
2021/08/12 10:08:51;;;;;;;3.25;2.90;;;;;;;22.62;59.40;100794.07;1846659;77;21021;-88
2021/08/12 10:11:26;;;;;;;5.00;2.65;;;;;;;22.61;60.18;100791.89;1847445;78;20973;-89
2021/08/12 10:13:59;;;;;;;5.12;2.60;;;;;;;22.69;59.39;100795.86;1846600;77;20997;-88
2021/08/12 10:16:27;;;;;;;3.00;2.40;;;;;;;22.80;59.00;100787.87;1847452;78;20965;-89
2021/08/12 10:18:56;;;;;;;3.77;2.45;;;;;;;22.97;59.89;100787.77;1847621;78;21009;-88
2021/08/12 10:21:22;;;;;;;3.12;2.40;;;;;;;23.07;59.34;100781.14;1847276;77;21016;-89
2021/08/12 10:24:01;;;;;;;3.95;2.30;;;;;;;23.21;58.84;100778.15;1847607;78;21013;-89
2021/08/12 10:26:29;;;;;;;3.50;2.10;;;;;;;23.35;59.25;100783.22;1847753;77;20977;-89
2021/08/12 10:34:49;;;;;;;2.75;2.17;;;;;;;23.70;56.77;100780.88;1769519;79;21013;-87
2021/08/12 10:37:37;;;;;;;6.62;2.65;;;;;;;23.65;57.68;100779.52;1823613;79;20992;-86
2021/08/12 10:40:29;;;;;;;4.75;2.67;;;;;;;23.59;57.45;100776.25;1837060;78;21017;-86
2021/08/12 10:42:58;;;;;;;2.75;2.00;;;;;;;23.57;57.56;100771.55;1847899;78;21487;-89
2021/08/12 10:45:31;;;;;;;3.90;2.55;;;;;;;23.65;56.43;100775.99;1847575;78;21001;-90
2021/08/12 10:48:00;;;;;;;4.12;2.55;;;;;;;23.72;56.54;100772.08;1845868;78;21037;-88
2021/08/12 10:50:36;;;;;;;4.08;2.42;;;;;;;23.71;55.91;100770.41;1847772;78;21000;-89
2021/08/12 10:53:09;;;;;;;3.67;2.37;;;;;;;23.73;55.92;100771.08;1847538;78;21025;-88
2021/08/12 10:55:58;;;;;;;4.10;2.50;;;;;;;23.76;55.87;100770.19;1847525;78;21040;-88
2021/08/12 10:58:33;;;;;;;3.20;2.12;;;;;;;23.75;56.29;100770.36;1847463;77;20945;-88
2021/08/12 11:01:04;;;;;;;3.30;2.30;;;;;;;23.70;55.41;100776.31;1847543;78;21480;-88
2021/08/12 11:03:47;;;;;;;3.35;2.55;;;;;;;23.67;55.28;100773.13;1847589;78;21021;-88
2021/08/12 11:06:19;;;;;;;3.35;2.20;;;;;;;23.63;54.82;100778.89;1847571;77;21471;-88
2021/08/12 11:08:57;;;;;;;2.62;2.08;;;;;;;23.52;53.61;100775.29;1847390;77;20961;-88
2021/08/12 11:11:34;;;;;;;2.70;2.00;;;;;;;23.46;53.96;100772.50;1847566;78;21004;-88
2021/08/12 11:14:12;;;;;;;2.98;2.15;;;;;;;23.41;53.92;100771.72;1848014;78;20982;-88
2021/08/12 11:16:49;;;;;;;2.75;1.70;;;;;;;23.43;54.14;100772.87;1847455;77;21420;-88
2021/08/12 11:19:29;;;;;;;3.37;2.08;;;;;;;23.54;54.99;100778.65;1847479;78;21034;-88
2021/08/12 11:21:57;;;;;;;3.22;2.20;;;;;;;23.67;55.02;100774.48;1847519;78;21511;-88
2021/08/12 11:24:28;;;;;;;3.47;2.35;;;;;;;23.82;54.84;100769.92;1847759;77;21013;-88
2021/08/12 11:27:04;;;;;;;3.08;2.20;;;;;;;23.94;54.13;100767.61;1847620;78;20993;-88
2021/08/12 11:29:34;;;;;;;3.85;2.35;;;;;;;24.05;53.58;100763.06;1847642;78;20938;-88
2021/08/12 11:32:14;;;;;;;3.52;2.40;;;;;;;24.11;52.98;100763.14;1847265;77;21041;-87
2021/08/12 11:34:54;;;;;;;2.62;1.77;;;;;;;24.07;51.42;100769.95;1847523;77;20990;-88
2021/08/12 11:37:27;;;;;;;3.12;2.50;;;;;;;24.03;51.60;100763.27;1847444;78;21006;-88